createdAt,value
2022-12-11T00:00:19.897Z,6.11
2022-12-11T00:05:26.792Z,5.93
2022-12-11T00:10:37.648Z,5.64
2022-12-11T00:15:40.411Z,6.03
2022-12-11T00:20:47.542Z,5.98
2022-12-11T00:25:54.456Z,21.75
2022-12-11T00:31:01.472Z,7.05
2022-12-11T00:36:08.347Z,6.36
2022-12-11T00:41:15.535Z,9.26
2022-12-11T00:46:22.488Z,6.67
2022-12-11T00:51:29.546Z,5.02
2022-12-11T00:56:36.507Z,5.01
2022-12-11T01:01:43.571Z,5.91
2022-12-11T01:06:50.801Z,16.49
2022-12-11T01:11:57.996Z,11.75
2022-12-11T01:17:04.908Z,8.73
2022-12-11T01:22:11.966Z,6.28
2022-12-11T01:27:19.004Z,6.16
2022-12-11T01:32:26.091Z,6.75
2022-12-11T01:37:33.049Z,9.77
2022-12-11T01:42:40.063Z,6.77
2022-12-11T01:47:46.968Z,7.30
2022-12-11T01:52:54.063Z,7.89
2022-12-11T01:58:00.963Z,6.59
2022-12-11T02:03:07.999Z,5.69
2022-12-11T02:08:14.959Z,5.61
2022-12-11T02:13:21.953Z,6.54
2022-12-11T02:18:28.918Z,6.13
2022-12-11T02:23:35.974Z,5.39
2022-12-11T02:28:42.870Z,5.59
2022-12-11T02:33:49.993Z,5.33
2022-12-11T02:38:56.949Z,5.27
2022-12-11T02:44:04.015Z,5.20
2022-12-11T02:49:10.918Z,6.14
2022-12-11T02:54:17.991Z,6.88
2022-12-11T02:59:24.878Z,6.36
2022-12-11T03:04:32.027Z,6.27
2022-12-11T03:09:38.943Z,5.88
2022-12-11T03:14:45.990Z,7.85
2022-12-11T03:19:52.888Z,7.44
2022-12-11T03:25:00.058Z,8.93
2022-12-11T03:30:07.001Z,6.65
2022-12-11T03:35:14.442Z,7.07
2022-12-11T03:40:20.604Z,9.72
2022-12-11T03:45:27.642Z,7.88
2022-12-11T03:50:34.549Z,7.83
2022-12-11T03:55:41.675Z,6.62
2022-12-11T04:00:48.600Z,6.73
2022-12-11T04:05:55.640Z,5.50
2022-12-11T04:11:02.644Z,5.06
2022-12-11T04:16:09.767Z,4.91
2022-12-11T04:21:16.733Z,4.72
2022-12-11T04:26:23.833Z,4.57
2022-12-11T04:31:30.830Z,4.57
2022-12-11T04:36:38.023Z,4.60
2022-12-11T04:41:44.970Z,4.49
2022-12-11T04:46:52.084Z,4.44
2022-12-11T04:51:58.965Z,4.36
2022-12-11T04:57:05.924Z,4.31
2022-12-11T05:02:12.826Z,4.55
2022-12-11T05:07:19.923Z,4.57
2022-12-11T05:12:26.990Z,4.62
2022-12-11T05:17:33.980Z,4.66
2022-12-11T05:22:40.889Z,4.61
2022-12-11T05:27:47.883Z,4.66
2022-12-11T05:32:54.818Z,4.04
2022-12-11T05:38:02.159Z,4.86
2022-12-11T05:43:09.066Z,4.57
2022-12-11T05:48:16.249Z,4.65
2022-12-11T05:53:23.185Z,4.85
2022-12-11T05:58:30.434Z,4.42
2022-12-11T06:03:37.360Z,4.57
2022-12-11T06:08:44.388Z,4.14
2022-12-11T06:13:51.370Z,4.22
2022-12-11T06:18:58.738Z,4.31
2022-12-11T06:24:05.925Z,4.41
2022-12-11T06:29:13.443Z,4.27
2022-12-11T06:34:20.392Z,4.62
2022-12-11T06:39:27.537Z,5.01
2022-12-11T06:44:34.496Z,4.75
2022-12-11T06:49:41.516Z,5.99
2022-12-11T06:54:48.407Z,4.59
2022-12-11T06:59:55.370Z,4.45
2022-12-11T07:05:02.330Z,9.85
2022-12-11T07:10:09.349Z,16.96
2022-12-11T07:15:16.370Z,29.06
2022-12-11T07:20:23.382Z,10.14
2022-12-11T07:25:30.297Z,8.48
2022-12-11T07:30:37.504Z,9.49
2022-12-11T07:35:44.425Z,6.02
2022-12-11T07:40:51.584Z,6.11
2022-12-11T07:45:58.530Z,5.68
2022-12-11T07:51:05.476Z,4.69
2022-12-11T07:56:12.393Z,5.74
2022-12-11T08:01:19.561Z,7.00
2022-12-11T08:06:26.403Z,8.60
2022-12-11T08:11:33.464Z,6.26
2022-12-11T08:16:40.403Z,4.68
2022-12-11T08:21:47.442Z,5.12
2022-12-11T08:26:54.372Z,6.45
2022-12-11T08:32:01.352Z,4.99
2022-12-11T08:37:08.282Z,6.09
2022-12-11T08:42:15.276Z,5.14
2022-12-11T08:47:22.142Z,4.79
2022-12-11T08:52:29.171Z,4.77
2022-12-11T08:57:36.128Z,4.49
2022-12-11T09:02:43.134Z,6.78
2022-12-11T09:07:50.056Z,9.27
2022-12-11T09:12:57.130Z,5.23
2022-12-11T09:18:04.023Z,6.09
2022-12-11T09:23:11.102Z,44.68
2022-12-11T09:28:18.008Z,8.51
2022-12-11T09:33:25.106Z,4.54
2022-12-11T09:38:32.048Z,7.04
2022-12-11T09:43:39.076Z,6.24
2022-12-11T09:48:46.004Z,8.44
2022-12-11T09:53:53.194Z,6.23
2022-12-11T09:59:00.159Z,5.86
2022-12-11T10:04:07.214Z,7.70
2022-12-11T10:09:14.157Z,8.37
2022-12-11T10:14:21.313Z,7.14
2022-12-11T10:19:28.187Z,6.37
2022-12-11T10:25:09.481Z,7.11
2022-12-11T10:29:41.629Z,5.80
2022-12-11T10:34:48.630Z,5.32
2022-12-11T10:39:55.591Z,4.46
2022-12-11T10:45:02.689Z,4.72
2022-12-11T10:50:09.604Z,4.47
2022-12-11T10:55:16.664Z,4.28
2022-12-11T11:00:23.552Z,4.29
2022-12-11T11:05:30.654Z,4.34
2022-12-11T11:10:37.608Z,3.84
2022-12-11T11:15:44.666Z,5.27
2022-12-11T11:20:51.741Z,4.93
2022-12-11T11:25:58.726Z,5.55
2022-12-11T11:31:05.707Z,4.89
2022-12-11T11:36:12.694Z,5.21
2022-12-11T11:41:19.725Z,6.72
2022-12-11T11:46:26.872Z,5.67
2022-12-11T11:51:33.739Z,8.01
2022-12-11T11:56:40.897Z,5.84
2022-12-11T12:01:47.805Z,5.66
2022-12-11T12:06:54.853Z,7.47
2022-12-11T12:12:01.796Z,6.89
2022-12-11T12:17:08.903Z,6.49
2022-12-11T12:22:15.830Z,6.13
2022-12-11T12:27:51.192Z,5.95
2022-12-11T12:32:29.528Z,8.40
2022-12-11T12:37:36.523Z,6.04
2022-12-11T12:42:43.425Z,5.98
2022-12-11T12:47:53.405Z,6.96
2022-12-11T12:52:56.964Z,7.59
2022-12-11T12:58:04.091Z,5.74
2022-12-11T13:03:11.020Z,4.53
2022-12-11T13:08:18.188Z,10.95
2022-12-11T13:13:25.112Z,4.99
2022-12-11T13:18:32.248Z,5.76
2022-12-11T13:23:39.154Z,13.18
2022-12-11T13:28:46.254Z,7.46
2022-12-11T13:33:53.174Z,12.13
2022-12-11T13:39:00.212Z,14.41
2022-12-11T13:44:07.124Z,14.25
2022-12-11T13:49:14.245Z,8.56
2022-12-11T13:54:21.177Z,7.76
2022-12-11T13:59:28.257Z,14.10
2022-12-11T14:04:35.184Z,9.86
2022-12-11T14:09:43.426Z,7.55
2022-12-11T14:14:48.665Z,12.41
2022-12-11T14:19:55.845Z,11.22
2022-12-11T14:25:02.775Z,6.84
2022-12-11T14:30:10.030Z,10.06
2022-12-11T14:35:16.773Z,12.38
2022-12-11T14:40:23.915Z,7.42
2022-12-11T14:45:30.912Z,9.05
2022-12-11T14:50:37.996Z,5.90
2022-12-11T14:55:44.996Z,6.08
2022-12-11T15:00:51.998Z,6.03
2022-12-11T15:05:58.919Z,6.64
2022-12-11T15:11:06.055Z,9.86
2022-12-11T15:16:12.996Z,7.05
2022-12-11T15:21:19.972Z,6.35
2022-12-11T15:26:26.959Z,5.77
2022-12-11T15:31:34.075Z,16.32
2022-12-11T15:36:40.973Z,19.99
2022-12-11T15:41:48.077Z,16.84
2022-12-11T15:46:55.009Z,9.88
2022-12-11T15:52:02.115Z,6.29
2022-12-11T15:57:09.008Z,6.36
2022-12-11T16:02:16.754Z,9.77
2022-12-11T16:07:23.682Z,19.57
2022-12-11T16:12:30.831Z,29.21
2022-12-11T16:17:37.752Z,29.16
2022-12-11T16:22:44.751Z,28.37
2022-12-11T16:27:51.764Z,20.18
2022-12-11T16:32:58.851Z,12.34
2022-12-11T16:38:05.742Z,10.34
2022-12-11T16:43:12.849Z,10.19
2022-12-11T16:48:19.868Z,17.43
2022-12-11T16:53:27.174Z,13.70
2022-12-11T16:58:34.113Z,26.64
2022-12-11T17:03:41.171Z,21.45
2022-12-11T17:08:48.074Z,32.88
2022-12-11T17:13:55.209Z,34.12
2022-12-11T17:19:02.131Z,26.46
2022-12-11T17:24:09.098Z,21.59
2022-12-11T17:29:15.996Z,10.85
2022-12-11T17:34:23.151Z,10.57
2022-12-11T17:39:30.144Z,10.92
2022-12-11T17:44:37.225Z,8.22
2022-12-11T17:49:44.125Z,13.00
2022-12-11T17:54:51.225Z,17.14
2022-12-11T17:59:58.117Z,10.78
2022-12-11T18:05:05.208Z,9.15
2022-12-11T18:10:12.170Z,25.77
2022-12-11T18:15:19.356Z,25.35
2022-12-11T18:20:26.331Z,34.44
2022-12-11T18:25:33.459Z,20.08
2022-12-11T18:30:40.453Z,10.46
2022-12-11T18:35:47.605Z,20.30
2022-12-11T18:40:54.552Z,22.15
2022-12-11T18:46:01.666Z,14.56
2022-12-11T18:51:08.639Z,15.34
2022-12-11T18:56:15.785Z,8.92
2022-12-11T19:01:22.712Z,15.50
2022-12-11T19:06:29.712Z,5.91
2022-12-11T19:11:36.641Z,7.25
2022-12-11T19:16:43.646Z,6.79
2022-12-11T19:21:50.580Z,11.85
2022-12-11T19:26:57.587Z,35.74
2022-12-11T19:32:04.523Z,15.83
2022-12-11T19:37:11.600Z,10.49
2022-12-11T19:42:18.486Z,14.05
2022-12-11T19:47:25.531Z,8.06
2022-12-11T19:52:32.453Z,8.15
2022-12-11T19:57:39.576Z,5.72
2022-12-11T20:02:46.552Z,8.71
2022-12-11T20:07:53.617Z,6.15
2022-12-11T20:13:00.451Z,6.37
2022-12-11T20:18:07.438Z,6.35
2022-12-11T20:23:14.370Z,6.27
2022-12-11T20:28:21.825Z,10.15
2022-12-11T20:33:28.762Z,13.45
2022-12-11T20:38:35.908Z,8.45
2022-12-11T20:43:42.837Z,6.55
2022-12-11T20:48:49.890Z,15.82
2022-12-11T20:53:56.807Z,7.88
2022-12-11T20:59:03.877Z,4.64
2022-12-11T21:04:10.790Z,10.28
2022-12-11T21:09:17.915Z,5.63
2022-12-11T21:14:24.826Z,5.96
2022-12-11T21:19:32.024Z,4.94
2022-12-11T21:24:38.919Z,4.99
2022-12-11T21:29:46.151Z,5.07
2022-12-11T21:34:53.112Z,4.94
2022-12-11T21:40:00.223Z,4.87
2022-12-11T21:50:13.931Z,5.06
2022-12-11T21:55:20.907Z,5.14
2022-12-11T22:00:27.977Z,4.72
2022-12-11T22:05:34.925Z,4.74
2022-12-11T22:10:41.938Z,4.46
2022-12-11T22:15:48.895Z,4.83
2022-12-11T22:20:55.982Z,4.89
2022-12-11T22:26:02.934Z,4.46
2022-12-11T22:31:09.979Z,9.59
2022-12-11T22:36:16.879Z,6.42
2022-12-11T22:41:23.963Z,4.58
2022-12-11T22:46:30.851Z,4.85
2022-12-11T22:51:37.928Z,6.57
2022-12-11T22:56:44.851Z,4.46
2022-12-11T23:01:51.883Z,5.15
2022-12-11T23:06:58.775Z,5.16
2022-12-11T23:12:06.096Z,5.09
2022-12-11T23:17:13.058Z,4.81
2022-12-11T23:22:20.078Z,4.66
2022-12-11T23:27:27.155Z,4.76
2022-12-11T23:32:34.310Z,4.53
2022-12-11T23:37:41.221Z,4.19
2022-12-11T23:42:48.358Z,4.04
2022-12-11T23:47:55.283Z,4.44
2022-12-11T23:53:02.374Z,3.79
2022-12-11T23:58:09.276Z,3.92
